Allen Jay, North Carolina
Current Conditions -  °F | °C
As of 4:54 PM on Monday 22 Dec 2014 (Local Time) from KGSO Reporting Station
Drizzle Drizzle  
Wind Chill: 28°   Ceiling: 300
Heat Index: 35°   Visibility: 1.5mi
Dew Point: 34°   Wind: 9mph
Humidity: 96%   Direction: 40°NE
Pressure: 30.06"   Gusts: NA
Location:  35.9136°N, 79.9465°W
Report Text: KGSO 222154Z 04008KT 1 1/2SM -DZ BR OVC003 02/01 A3006 RMK AO2 SLP183 P0000 T00170011
Loading
Personal Weather Stations






























Interactive Weather Map New forecast layout! Learn more

10-Day Weather Forecast

Advertisements
Track Severe Weather on mobile